createdAt,value
2018-07-15T00:01:38.614Z,14.13
2018-07-15T00:04:06.778Z,14.63
2018-07-15T00:06:34.951Z,13.60
2018-07-15T00:09:03.476Z,14.10
2018-07-15T00:11:31.642Z,13.90
2018-07-15T00:13:59.814Z,15.60
2018-07-15T00:16:27.991Z,15.57
2018-07-15T00:18:56.175Z,14.87
2018-07-15T00:21:24.378Z,15.17
2018-07-15T00:23:52.550Z,15.70
2018-07-15T00:26:20.730Z,14.27
2018-07-15T00:28:48.930Z,16.47
2018-07-15T00:31:17.106Z,14.83
2018-07-15T00:33:45.283Z,15.30
2018-07-15T00:36:13.450Z,14.67
2018-07-15T00:38:41.610Z,15.20
2018-07-15T00:41:09.791Z,14.63
2018-07-15T00:43:38.269Z,15.67
2018-07-15T00:46:06.595Z,15.03
2018-07-15T00:48:34.749Z,15.27
2018-07-15T00:51:02.923Z,16.13
2018-07-15T00:53:31.103Z,15.87
2018-07-15T00:55:59.299Z,15.83
2018-07-15T00:58:27.479Z,16.60
2018-07-15T01:01:02.123Z,16.03
2018-07-15T01:03:31.139Z,17.63
2018-07-15T01:05:59.411Z,14.90
2018-07-15T01:08:27.627Z,16.80
2018-07-15T01:10:55.827Z,17.33
2018-07-15T01:13:24.163Z,18.00
2018-07-15T01:15:52.438Z,16.67
2018-07-15T01:18:20.706Z,16.27
2018-07-15T01:20:48.898Z,17.00
2018-07-15T01:23:17.086Z,16.47
2018-07-15T01:25:45.291Z,16.80
2018-07-15T01:28:13.462Z,16.13
2018-07-15T01:30:41.649Z,16.50
2018-07-15T01:33:09.855Z,16.60
2018-07-15T01:35:38.058Z,17.00
2018-07-15T01:38:06.338Z,17.30
2018-07-15T01:40:34.516Z,17.43
2018-07-15T01:43:02.711Z,15.73
2018-07-15T01:45:30.883Z,16.70
2018-07-15T01:47:59.065Z,16.77
2018-07-15T01:50:27.258Z,17.37
2018-07-15T01:52:55.446Z,17.10
2018-07-15T01:55:23.646Z,16.40
2018-07-15T01:57:51.830Z,16.50
2018-07-15T02:00:20.023Z,16.50
2018-07-15T02:02:48.195Z,15.93
2018-07-15T02:05:16.386Z,16.60
2018-07-15T02:07:44.554Z,16.70
2018-07-15T02:10:12.728Z,16.90
2018-07-15T02:12:40.898Z,17.43
2018-07-15T02:15:09.085Z,16.83
2018-07-15T02:17:37.278Z,17.80
2018-07-15T02:20:05.458Z,16.90
2018-07-15T02:22:33.665Z,18.20
2018-07-15T02:25:01.835Z,18.07
2018-07-15T02:27:30.031Z,16.47
2018-07-15T02:29:58.211Z,18.63
2018-07-15T02:32:26.400Z,17.83
2018-07-15T02:34:54.585Z,17.93
2018-07-15T02:37:22.811Z,17.03
2018-07-15T02:39:50.983Z,18.13
2018-07-15T02:42:19.201Z,17.87
2018-07-15T02:44:47.511Z,17.60
2018-07-15T02:47:15.667Z,17.00
2018-07-15T02:49:43.860Z,16.90
2018-07-15T02:52:12.031Z,15.87
2018-07-15T02:54:40.377Z,16.97
2018-07-15T02:57:08.559Z,17.90
2018-07-15T02:59:36.778Z,17.83
2018-07-15T03:02:04.979Z,16.93
2018-07-15T03:04:33.150Z,17.30
2018-07-15T03:07:01.331Z,18.17
2018-07-15T03:09:29.506Z,17.67
2018-07-15T03:11:57.677Z,17.43
2018-07-15T03:14:25.847Z,17.50
2018-07-15T03:16:54.044Z,17.53
2018-07-15T03:19:22.219Z,18.50
2018-07-15T03:21:50.402Z,17.83
2018-07-15T03:24:18.561Z,18.87
2018-07-15T03:26:46.744Z,19.10
2018-07-15T03:29:14.907Z,18.77
2018-07-15T03:31:43.082Z,18.13
2018-07-15T03:34:11.356Z,18.33
2018-07-15T03:36:39.438Z,18.70
2018-07-15T03:39:08.160Z,19.00
2018-07-15T03:41:36.354Z,18.97
2018-07-15T03:44:04.716Z,18.63
2018-07-15T03:46:32.874Z,19.43
2018-07-15T03:49:01.078Z,18.70
2018-07-15T03:51:29.251Z,17.93
2018-07-15T03:53:57.435Z,19.37
2018-07-15T03:56:25.611Z,19.20
2018-07-15T03:58:53.869Z,18.53
2018-07-15T04:01:22.054Z,18.70
2018-07-15T04:03:50.231Z,18.83
2018-07-15T04:06:18.398Z,18.33
2018-07-15T04:08:46.702Z,19.37
2018-07-15T04:11:14.740Z,18.60
2018-07-15T04:13:42.905Z,18.30
2018-07-15T04:16:11.078Z,18.07
2018-07-15T04:18:39.250Z,19.40
2018-07-15T04:21:07.418Z,19.97
2018-07-15T04:23:35.602Z,19.63
2018-07-15T04:26:03.775Z,19.53
2018-07-15T04:28:31.951Z,17.93
2018-07-15T04:31:00.138Z,18.73
2018-07-15T04:33:28.299Z,18.80
2018-07-15T04:35:56.475Z,18.80
2018-07-15T04:38:24.655Z,20.07
2018-07-15T04:40:52.991Z,18.90
2018-07-15T04:43:21.168Z,19.57
2018-07-15T04:45:49.343Z,19.47
2018-07-15T04:48:17.531Z,19.43
2018-07-15T04:50:45.694Z,18.17
2018-07-15T04:53:13.866Z,19.33
2018-07-15T04:55:42.044Z,18.90
2018-07-15T04:58:10.246Z,19.10
2018-07-15T05:00:38.482Z,17.53
2018-07-15T05:03:06.663Z,17.90
2018-07-15T05:05:34.867Z,17.90
2018-07-15T05:08:03.114Z,17.60
2018-07-15T05:10:31.306Z,18.50
2018-07-15T05:12:59.513Z,18.13
2018-07-15T05:15:27.691Z,17.47
2018-07-15T05:17:55.862Z,17.27
2018-07-15T05:20:24.043Z,17.87
2018-07-15T05:22:52.239Z,17.80
2018-07-15T05:25:20.472Z,17.83
2018-07-15T05:27:48.652Z,17.20
2018-07-15T05:30:16.831Z,18.57
2018-07-15T05:32:45.011Z,17.67
2018-07-15T05:35:13.295Z,17.80
2018-07-15T05:37:41.471Z,17.67
2018-07-15T05:40:09.671Z,17.90
2018-07-15T05:42:37.854Z,17.40
2018-07-15T05:45:06.031Z,17.00
2018-07-15T05:47:34.249Z,18.30
2018-07-15T05:50:02.535Z,18.70
2018-07-15T05:52:30.701Z,17.00
2018-07-15T05:54:58.975Z,18.70
2018-07-15T05:57:27.143Z,17.87
2018-07-15T05:59:55.322Z,17.87
2018-07-15T06:02:23.504Z,18.20
2018-07-15T06:04:51.671Z,17.93
2018-07-15T06:07:19.969Z,16.27
2018-07-15T06:09:48.146Z,17.00
2018-07-15T06:12:16.337Z,18.20
2018-07-15T06:14:44.522Z,16.57
2018-07-15T06:17:12.927Z,17.63
2018-07-15T06:19:41.006Z,16.40
2018-07-15T06:22:09.158Z,18.40
2018-07-15T06:24:37.328Z,17.60
2018-07-15T06:27:05.546Z,17.20
2018-07-15T06:29:33.707Z,17.30
2018-07-15T06:32:01.877Z,17.30
2018-07-15T06:34:30.043Z,18.03
2018-07-15T06:36:58.218Z,17.63
2018-07-15T06:39:26.380Z,18.63
2018-07-15T06:41:54.555Z,17.80
2018-07-15T06:44:22.708Z,19.33
2018-07-15T06:46:50.866Z,16.93
2018-07-15T06:49:19.116Z,17.30
2018-07-15T06:51:47.205Z,18.80
2018-07-15T06:54:15.390Z,17.17
2018-07-15T06:56:43.603Z,17.57
2018-07-15T06:59:11.767Z,17.60
2018-07-15T07:01:40.006Z,16.50
2018-07-15T07:04:08.114Z,17.93
2018-07-15T07:06:36.283Z,16.43
2018-07-15T07:09:05.535Z,16.70
2018-07-15T07:11:34.006Z,17.93
2018-07-15T07:14:02.202Z,16.13
2018-07-15T07:16:30.358Z,16.10
2018-07-15T07:18:58.532Z,16.10
2018-07-15T07:21:26.728Z,15.83
2018-07-15T07:23:54.902Z,16.77
2018-07-15T07:26:23.062Z,16.87
2018-07-15T07:28:51.288Z,16.40
2018-07-15T07:31:19.415Z,17.10
2018-07-15T07:33:47.690Z,15.87
2018-07-15T07:36:15.866Z,15.37
2018-07-15T07:38:44.254Z,15.90
2018-07-15T07:41:12.431Z,14.33
2018-07-15T07:43:40.590Z,14.03
2018-07-15T07:46:08.770Z,14.97
2018-07-15T07:48:36.940Z,16.37
2018-07-15T07:51:05.155Z,15.97
2018-07-15T07:53:33.331Z,16.37
2018-07-15T07:56:01.496Z,15.57
2018-07-15T07:58:29.702Z,14.73
2018-07-15T08:00:57.896Z,14.70
2018-07-15T08:03:26.074Z,16.13
2018-07-15T08:05:54.241Z,14.67
2018-07-15T08:08:22.422Z,14.90
2018-07-15T08:10:50.591Z,15.17
2018-07-15T08:13:18.795Z,14.20
2018-07-15T08:15:47.183Z,14.70
2018-07-15T08:18:15.406Z,15.70
2018-07-15T08:20:43.926Z,15.30
2018-07-15T08:23:12.103Z,15.73
2018-07-15T08:25:40.466Z,13.93
2018-07-15T08:28:08.751Z,15.43
2018-07-15T08:30:48.103Z,15.77
2018-07-15T08:33:16.292Z,15.00
2018-07-15T08:35:44.507Z,15.00
2018-07-15T08:38:12.683Z,15.70
2018-07-15T08:40:40.926Z,14.70
2018-07-15T08:43:09.142Z,13.63
2018-07-15T08:45:37.405Z,13.50
2018-07-15T08:48:05.892Z,13.17
2018-07-15T08:50:34.067Z,13.60
2018-07-15T08:53:02.335Z,12.10
2018-07-15T08:55:30.563Z,13.47
2018-07-15T08:57:58.846Z,13.90
2018-07-15T09:00:27.122Z,13.20
2018-07-15T09:02:55.363Z,13.80
2018-07-15T09:05:23.647Z,12.47
2018-07-15T09:07:52.035Z,11.93
2018-07-15T09:10:20.251Z,13.10
2018-07-15T09:12:48.487Z,12.27
2018-07-15T09:15:16.690Z,11.47
2018-07-15T09:17:44.899Z,12.50
2018-07-15T09:20:13.159Z,11.10
2018-07-15T09:22:41.385Z,11.80
2018-07-15T09:25:09.592Z,12.17
2018-07-15T09:27:37.812Z,11.00
2018-07-15T09:30:06.067Z,11.20
2018-07-15T09:32:34.335Z,12.20
2018-07-15T09:35:02.600Z,11.23
2018-07-15T09:37:30.852Z,11.63
2018-07-15T09:39:59.115Z,12.20
2018-07-15T09:42:27.387Z,10.90
2018-07-15T09:44:55.587Z,10.50
2018-07-15T09:47:23.915Z,11.73
2018-07-15T09:49:52.194Z,11.73
2018-07-15T09:52:20.530Z,12.40
2018-07-15T09:54:49.037Z,11.90
2018-07-15T09:57:17.262Z,13.53
2018-07-15T09:59:45.523Z,12.27
2018-07-15T10:02:13.751Z,12.47
2018-07-15T10:04:42.037Z,12.30
2018-07-15T10:07:10.262Z,12.07
2018-07-15T10:09:38.671Z,11.27
2018-07-15T10:12:06.948Z,11.17
2018-07-15T10:14:35.671Z,12.33
2018-07-15T10:17:03.866Z,11.33
2018-07-15T10:19:32.088Z,11.63
2018-07-15T10:22:00.473Z,12.23
2018-07-15T10:24:28.626Z,11.60
2018-07-15T10:26:56.839Z,11.20
2018-07-15T10:29:25.092Z,11.10
2018-07-15T10:31:53.428Z,11.60
2018-07-15T10:34:21.611Z,11.83
2018-07-15T10:36:49.790Z,11.57
2018-07-15T10:39:17.975Z,11.33
2018-07-15T10:41:46.171Z,11.60
2018-07-15T10:44:14.369Z,11.90
2018-07-15T10:46:42.551Z,10.87
2018-07-15T10:49:10.791Z,11.73
2018-07-15T10:51:39.140Z,10.43
2018-07-15T10:54:07.623Z,10.57
2018-07-15T10:56:35.842Z,10.83
2018-07-15T10:59:04.050Z,11.67
2018-07-15T11:01:32.294Z,11.00
2018-07-15T11:04:00.466Z,10.27
2018-07-15T11:06:28.748Z,10.40
2018-07-15T11:08:56.966Z,10.83
2018-07-15T11:11:25.278Z,10.87
2018-07-15T11:13:53.618Z,9.97
2018-07-15T11:16:21.833Z,10.97
2018-07-15T11:18:50.045Z,10.77
2018-07-15T11:21:18.249Z,10.90
2018-07-15T11:23:46.422Z,10.23
2018-07-15T11:26:14.762Z,11.83
2018-07-15T11:28:42.870Z,10.97
2018-07-15T11:31:11.332Z,10.90
2018-07-15T11:33:39.436Z,11.60
2018-07-15T11:36:07.815Z,11.53
2018-07-15T11:38:36.006Z,11.40
2018-07-15T11:41:04.417Z,11.70
2018-07-15T11:43:32.659Z,11.33
2018-07-15T11:46:01.242Z,11.00
2018-07-15T11:48:29.811Z,11.67
2018-07-15T11:50:58.025Z,11.23
2018-07-15T11:53:26.267Z,11.33
2018-07-15T11:55:54.500Z,11.60
2018-07-15T11:58:22.759Z,12.57
2018-07-15T12:00:51.007Z,11.53
2018-07-15T12:03:19.607Z,11.93
2018-07-15T12:05:48.041Z,11.40
2018-07-15T12:08:16.469Z,11.93
2018-07-15T12:10:45.128Z,11.70
2018-07-15T12:13:13.589Z,11.90
2018-07-15T12:15:41.991Z,12.33
2018-07-15T12:18:10.579Z,12.20
2018-07-15T12:20:39.089Z,12.70
2018-07-15T12:23:07.531Z,13.67
2018-07-15T12:25:36.042Z,12.10
2018-07-15T12:28:05.048Z,12.10
2018-07-15T12:30:34.211Z,13.03
2018-07-15T12:33:02.644Z,13.10
2018-07-15T12:35:31.123Z,12.37
2018-07-15T12:37:59.381Z,12.07
2018-07-15T12:40:27.872Z,12.43
2018-07-15T12:42:56.215Z,13.00
2018-07-15T12:45:24.798Z,12.43
2018-07-15T12:47:53.227Z,12.40
2018-07-15T12:50:21.684Z,12.83
2018-07-15T12:52:50.873Z,13.03
2018-07-15T12:55:19.319Z,11.97
2018-07-15T12:57:47.596Z,12.40
2018-07-15T13:00:15.986Z,12.23
2018-07-15T13:02:44.536Z,12.53
2018-07-15T13:05:13.150Z,11.83
2018-07-15T13:07:41.657Z,12.33
2018-07-15T13:10:09.914Z,11.30
2018-07-15T13:12:38.411Z,12.60
2018-07-15T13:15:06.788Z,11.53
2018-07-15T13:17:35.336Z,11.90
2018-07-15T13:20:04.497Z,11.63
2018-07-15T13:22:33.247Z,11.07
2018-07-15T13:25:01.798Z,11.83
2018-07-15T13:27:30.223Z,10.57
2018-07-15T13:29:58.591Z,11.50
2018-07-15T13:32:26.955Z,11.53
2018-07-15T13:34:55.418Z,10.93
2018-07-15T13:37:23.885Z,11.23
2018-07-15T13:39:52.289Z,10.87
2018-07-15T13:42:20.747Z,12.27
2018-07-15T13:44:48.976Z,11.80
2018-07-15T13:47:17.563Z,11.30
2018-07-15T13:49:45.782Z,11.13
2018-07-15T13:52:14.110Z,11.17
2018-07-15T13:54:42.275Z,10.97
2018-07-15T13:57:10.440Z,10.87
2018-07-15T13:59:38.608Z,12.03
2018-07-15T14:02:06.790Z,11.63
2018-07-15T14:04:35.058Z,11.93
2018-07-15T14:07:03.490Z,10.90
2018-07-15T14:09:31.713Z,11.10
2018-07-15T14:11:59.983Z,12.40
2018-07-15T14:14:28.290Z,11.93
2018-07-15T14:16:56.479Z,12.23
2018-07-15T14:19:24.751Z,11.50
2018-07-15T14:21:52.934Z,10.97
2018-07-15T14:24:21.102Z,11.23
2018-07-15T14:26:49.292Z,11.50
2018-07-15T14:29:17.470Z,11.23
2018-07-15T14:31:45.643Z,13.17
2018-07-15T14:34:13.803Z,11.63
2018-07-15T14:36:41.974Z,12.00
2018-07-15T14:39:10.126Z,11.27
2018-07-15T14:41:38.306Z,12.60
2018-07-15T14:44:06.759Z,11.30
2018-07-15T14:46:34.987Z,10.73
2018-07-15T14:49:03.423Z,11.20
2018-07-15T14:51:31.586Z,11.23
2018-07-15T14:53:59.749Z,13.43
2018-07-15T14:56:28.115Z,12.07
2018-07-15T14:58:56.292Z,11.00
2018-07-15T15:01:24.642Z,11.37
2018-07-15T15:03:52.818Z,13.03
2018-07-15T15:06:20.995Z,11.83
2018-07-15T15:08:49.195Z,11.13
2018-07-15T15:11:17.381Z,10.53
2018-07-15T15:13:45.586Z,11.97
2018-07-15T15:16:13.758Z,12.10
2018-07-15T15:18:41.967Z,12.07
2018-07-15T15:21:10.151Z,11.37
2018-07-15T15:23:38.335Z,12.07
2018-07-15T15:26:06.562Z,11.27
2018-07-15T15:28:34.738Z,11.73
2018-07-15T15:31:02.906Z,12.17
2018-07-15T15:33:31.131Z,12.47
2018-07-15T15:35:59.247Z,12.27
2018-07-15T15:38:27.413Z,11.77
2018-07-15T15:40:55.589Z,10.53
2018-07-15T15:43:23.764Z,11.40
2018-07-15T15:45:51.946Z,10.90
2018-07-15T15:48:20.106Z,10.10
2018-07-15T15:50:48.279Z,9.80
2018-07-15T15:53:16.471Z,10.67
2018-07-15T15:55:44.675Z,9.60
2018-07-15T15:58:12.947Z,9.60
2018-07-15T16:00:41.063Z,10.00
2018-07-15T16:03:09.238Z,9.37
2018-07-15T16:05:37.533Z,9.50
2018-07-15T16:08:06.593Z,9.80
2018-07-15T16:10:34.787Z,10.70
2018-07-15T16:13:02.992Z,10.53
2018-07-15T16:15:31.155Z,9.97
2018-07-15T16:17:59.322Z,10.50
2018-07-15T16:20:27.499Z,10.37
2018-07-15T16:22:55.659Z,10.57
2018-07-15T16:25:23.833Z,9.53
2018-07-15T16:27:52.042Z,9.63
2018-07-15T16:30:20.327Z,9.93
2018-07-15T16:32:48.498Z,9.87
2018-07-15T16:35:16.678Z,10.30
2018-07-15T16:37:44.851Z,10.87
2018-07-15T16:40:13.067Z,9.50
2018-07-15T16:42:41.217Z,9.20
2018-07-15T16:45:09.667Z,10.83
2018-07-15T16:47:37.847Z,9.70
2018-07-15T16:50:06.176Z,9.97
2018-07-15T16:52:34.339Z,9.67
2018-07-15T16:55:02.517Z,9.97
2018-07-15T16:57:30.687Z,9.83
2018-07-15T16:59:59.146Z,10.40
2018-07-15T17:02:27.310Z,9.97
2018-07-15T17:04:57.586Z,9.80
2018-07-15T17:07:26.028Z,10.50
2018-07-15T17:09:54.246Z,9.80
2018-07-15T17:12:22.588Z,9.87
2018-07-15T17:14:50.816Z,9.27
2018-07-15T17:17:19.023Z,9.73
2018-07-15T17:19:47.326Z,11.07
2018-07-15T17:22:15.622Z,9.50
2018-07-15T17:24:43.935Z,10.70
2018-07-15T17:27:12.169Z,10.73
2018-07-15T17:29:40.602Z,11.30
2018-07-15T17:32:08.795Z,11.40
2018-07-15T17:34:37.206Z,9.77
2018-07-15T17:37:05.558Z,10.03
2018-07-15T17:39:33.742Z,10.87
2018-07-15T17:42:02.045Z,11.43
2018-07-15T17:44:30.215Z,12.30
2018-07-15T17:46:58.418Z,9.80
2018-07-15T17:49:26.599Z,10.07
2018-07-15T17:51:54.767Z,10.10
2018-07-15T17:54:22.935Z,10.40
2018-07-15T17:56:51.154Z,9.60
2018-07-15T17:59:19.328Z,10.00
2018-07-15T18:01:47.512Z,9.70
2018-07-15T18:04:15.715Z,10.07
2018-07-15T18:06:43.874Z,9.80
2018-07-15T18:09:12.047Z,9.67
2018-07-15T18:11:40.222Z,8.50
2018-07-15T18:14:08.966Z,10.30
2018-07-15T18:16:37.142Z,11.27
2018-07-15T18:19:05.310Z,9.40
2018-07-15T18:21:33.487Z,9.67
2018-07-15T18:24:01.651Z,9.50
2018-07-15T18:26:29.914Z,9.87
2018-07-15T18:28:58.283Z,10.10
2018-07-15T18:31:26.539Z,9.83
2018-07-15T18:33:54.742Z,10.00
2018-07-15T18:36:22.915Z,10.33
2018-07-15T18:38:51.086Z,10.00
2018-07-15T18:41:19.292Z,9.50
2018-07-15T18:43:47.650Z,9.60
2018-07-15T18:46:15.887Z,10.00
2018-07-15T18:48:44.094Z,11.53
2018-07-15T18:51:12.455Z,9.73
2018-07-15T18:53:40.815Z,9.00
2018-07-15T18:56:08.935Z,9.10
2018-07-15T18:58:37.135Z,9.73
2018-07-15T19:01:05.326Z,9.43
2018-07-15T19:03:33.707Z,9.87
2018-07-15T19:06:01.971Z,9.70
2018-07-15T19:08:30.163Z,9.30
2018-07-15T19:10:58.498Z,9.20
2018-07-15T19:13:26.749Z,9.33
2018-07-15T19:15:55.583Z,9.30
2018-07-15T19:18:23.917Z,9.00
2018-07-15T19:20:52.047Z,9.47
2018-07-15T19:23:20.273Z,8.70
2018-07-15T19:25:48.522Z,8.80
2018-07-15T19:28:16.787Z,9.97
2018-07-15T19:30:45.015Z,9.57
2018-07-15T19:33:13.256Z,9.90
2018-07-15T19:35:41.498Z,9.23
2018-07-15T19:38:09.655Z,8.93
2018-07-15T19:40:37.823Z,8.67
2018-07-15T19:43:06.027Z,9.50
2018-07-15T19:45:34.199Z,9.83
2018-07-15T19:48:02.383Z,8.77
2018-07-15T19:50:30.550Z,9.30
2018-07-15T19:52:58.738Z,10.10
2018-07-15T19:55:26.952Z,9.60
2018-07-15T19:57:55.170Z,9.07
2018-07-15T20:00:23.328Z,8.80
2018-07-15T20:02:51.492Z,9.93
2018-07-15T20:05:19.654Z,9.50
2018-07-15T20:07:47.818Z,8.10
2018-07-15T20:10:15.991Z,8.10
2018-07-15T20:12:44.158Z,8.43
2018-07-15T20:15:12.380Z,7.80
2018-07-15T20:17:40.554Z,7.63
2018-07-15T20:20:09.831Z,8.17
2018-07-15T20:22:38.027Z,8.40
2018-07-15T20:25:06.527Z,8.33
2018-07-15T20:27:34.751Z,8.60
2018-07-15T20:30:02.907Z,8.77
2018-07-15T20:32:31.211Z,8.07
2018-07-15T20:34:59.383Z,8.57
2018-07-15T20:37:28.042Z,8.50
2018-07-15T20:39:56.265Z,11.60
2018-07-15T20:42:24.368Z,8.63
2018-07-15T20:44:52.535Z,9.57
2018-07-15T20:47:20.707Z,9.30
2018-07-15T20:49:48.868Z,8.90
2018-07-15T20:52:17.030Z,8.90
2018-07-15T20:54:45.219Z,9.00
2018-07-15T20:57:13.379Z,8.83
2018-07-15T20:59:41.549Z,9.53
2018-07-15T21:02:09.858Z,9.03
2018-07-15T21:04:38.084Z,8.80
2018-07-15T21:07:06.235Z,8.47
2018-07-15T21:09:34.401Z,8.23
2018-07-15T21:12:02.575Z,8.83
2018-07-15T21:14:30.751Z,8.80
2018-07-15T21:16:59.067Z,9.33
2018-07-15T21:19:27.223Z,9.60
2018-07-15T21:21:55.398Z,10.07
2018-07-15T21:24:23.563Z,8.87
2018-07-15T21:26:51.742Z,8.70
2018-07-15T21:29:19.987Z,8.60
2018-07-15T21:31:48.167Z,10.47
2018-07-15T21:34:16.328Z,9.70
2018-07-15T21:36:44.483Z,11.13
2018-07-15T21:39:12.643Z,9.07
2018-07-15T21:41:40.847Z,9.60
2018-07-15T21:44:09.055Z,9.20
2018-07-15T21:46:37.158Z,10.70
2018-07-15T21:49:05.338Z,9.90
2018-07-15T21:51:34.723Z,10.43
2018-07-15T21:54:02.927Z,9.73
2018-07-15T21:56:31.104Z,9.87
2018-07-15T21:58:59.271Z,10.60
2018-07-15T22:01:36.758Z,9.63
2018-07-15T22:04:05.239Z,10.13
2018-07-15T22:07:47.283Z,10.03
2018-07-15T22:10:20.778Z,10.70
2018-07-15T22:12:48.938Z,10.10
2018-07-15T22:15:18.832Z,10.80
2018-07-15T22:17:46.998Z,11.23
2018-07-15T22:20:15.158Z,9.90
2018-07-15T22:22:43.311Z,10.10
2018-07-15T22:25:11.499Z,11.40
2018-07-15T22:27:39.658Z,10.57
2018-07-15T22:30:07.834Z,11.53
2018-07-15T22:32:35.998Z,10.50
2018-07-15T22:35:04.183Z,10.43
2018-07-15T22:37:32.346Z,9.77
2018-07-15T22:40:00.515Z,10.30
2018-07-15T22:42:28.679Z,10.10
2018-07-15T22:44:56.836Z,10.80
2018-07-15T22:47:25.196Z,10.67
2018-07-15T22:49:53.359Z,10.73
2018-07-15T22:52:21.534Z,10.97
2018-07-15T22:54:49.707Z,10.70
2018-07-15T22:57:17.882Z,10.07
2018-07-15T22:59:46.048Z,10.50
2018-07-15T23:02:14.219Z,10.90
2018-07-15T23:05:52.871Z,10.57
2018-07-15T23:08:21.664Z,10.83
2018-07-15T23:10:49.847Z,10.60
2018-07-15T23:13:18.415Z,10.20
2018-07-15T23:15:46.898Z,9.93
2018-07-15T23:18:15.063Z,10.83
2018-07-15T23:20:43.918Z,10.30
2018-07-15T23:23:12.538Z,9.80
2018-07-15T23:25:40.748Z,10.80
2018-07-15T23:28:09.828Z,9.97
2018-07-15T23:30:38.810Z,10.40
2018-07-15T23:33:07.491Z,10.03
2018-07-15T23:35:35.684Z,10.60
2018-07-15T23:38:03.907Z,10.73
2018-07-15T23:40:32.234Z,10.60
2018-07-15T23:43:00.935Z,10.53
2018-07-15T23:45:30.066Z,11.67
2018-07-15T23:47:58.265Z,9.90
2018-07-15T23:50:26.556Z,10.80
2018-07-15T23:52:54.938Z,11.93
2018-07-15T23:55:23.419Z,11.23
2018-07-15T23:57:51.694Z,11.40
